Time;durP1;ratioP1;P1;durP2;ratioP2;P2;SDS_P1;SDS_P2;PMS_P1;PMS_P2;Temp;Humidity;BMP_temperature;BMP_pressure;BME280_temperature;BME280_humidity;BME280_pressure;Samples;Min_cycle;Max_cycle;Signal;HPM_P1;HPM_P2
2022/07/20 00:00:23;;;;;;;9.98;4.03;;;;;;;19.13;51.99;98766.91;4132381;28;20056;-70
2022/07/20 00:02:24;;;;;;;5.22;4.20;;;;;;;19.15;50.92;98767.28;4133244;28;20042;-70
2022/07/20 00:04:24;;;;;;;5.88;4.25;;;;;;;19.06;51.58;98770.66;4134761;28;20064;-70
2022/07/20 00:06:25;;;;;;;5.38;3.95;;;;;;;18.97;51.76;98759.19;4133213;28;20042;-70
2022/07/20 00:13:03;;;;;;;6.25;3.90;;;;;;;18.82;52.43;98777.47;4135059;28;20354;-70
2022/07/20 00:15:05;;;;;;;6.30;4.25;;;;;;;18.77;51.81;98771.13;4136361;28;20041;-70
2022/07/20 00:17:06;;;;;;;5.10;4.30;;;;;;;18.77;52.48;98776.72;4134831;28;20054;-70
2022/07/20 00:19:06;;;;;;;5.93;4.65;;;;;;;18.76;52.80;98780.75;4135895;28;20061;-70
2022/07/20 00:21:06;;;;;;;6.65;4.00;;;;;;;18.75;53.04;98781.19;4135321;28;20056;-70
2022/07/20 00:23:07;;;;;;;6.80;4.60;;;;;;;18.72;52.98;98773.63;4136819;28;20057;-70
2022/07/20 00:25:07;;;;;;;4.85;3.60;;;;;;;18.71;53.07;98772.06;4136286;28;20141;-70
2022/07/20 00:27:08;;;;;;;8.35;4.13;;;;;;;18.73;52.46;98766.81;4136977;28;20052;-70
2022/07/20 00:29:08;;;;;;;5.35;3.67;;;;;;;18.73;52.38;98767.59;4136108;28;20137;-70
2022/07/20 00:31:09;;;;;;;8.15;4.03;;;;;;;18.65;54.66;98768.13;4137400;28;20037;-70
2022/07/20 00:33:09;;;;;;;7.28;4.13;;;;;;;18.56;54.31;98767.88;4138016;28;20088;-70
2022/07/20 00:35:12;;;;;;;7.20;4.30;;;;;;;18.48;54.00;98781.97;4135778;28;20041;-70
2022/07/20 00:37:12;;;;;;;7.00;4.13;;;;;;;18.49;53.71;98761.16;4137649;28;20053;-70
2022/07/20 00:39:13;;;;;;;5.10;4.20;;;;;;;18.58;52.67;98768.22;4137610;28;20045;-70
2022/07/20 00:41:13;;;;;;;9.40;4.80;;;;;;;18.63;52.94;98767.75;4139443;28;20098;-70
2022/07/20 00:43:14;;;;;;;7.60;4.50;;;;;;;18.58;53.26;98762.63;4138101;28;20093;-70
2022/07/20 00:45:14;;;;;;;5.97;4.43;;;;;;;18.51;53.29;98767.13;4137038;28;20064;-70
2022/07/20 00:47:15;;;;;;;4.47;3.83;;;;;;;18.45;53.95;98763.22;4138023;28;20077;-70
2022/07/20 00:49:15;;;;;;;5.10;4.30;;;;;;;18.40;54.30;98765.72;4137625;28;20128;-70
2022/07/20 00:51:16;;;;;;;5.30;4.32;;;;;;;18.31;54.30;98757.84;4138291;28;20104;-70
2022/07/20 00:53:16;;;;;;;6.65;4.35;;;;;;;18.32;54.04;98765.03;4138651;28;20044;-70
2022/07/20 00:55:17;;;;;;;10.40;4.20;;;;;;;18.28;54.86;98767.06;4137720;28;20034;-70
2022/07/20 00:57:18;;;;;;;8.55;4.38;;;;;;;18.25;54.70;98760.31;4138581;28;20352;-70
2022/07/20 00:59:19;;;;;;;6.15;3.88;;;;;;;18.30;54.26;98756.25;4136206;28;20561;-70
2022/07/20 01:01:19;;;;;;;6.93;4.35;;;;;;;18.29;54.91;98763.06;4138931;28;20398;-70
2022/07/20 01:03:20;;;;;;;5.88;4.40;;;;;;;18.29;54.68;98756.66;4137556;28;20110;-70
2022/07/20 01:05:20;;;;;;;7.65;4.47;;;;;;;18.28;54.75;98755.88;4136260;28;20050;-70
2022/07/20 01:07:21;;;;;;;6.93;4.13;;;;;;;18.28;54.54;98761.47;4138326;28;20126;-70
2022/07/20 01:09:21;;;;;;;8.60;4.65;;;;;;;18.24;54.18;98766.34;4135649;28;20101;-69
2022/07/20 01:11:22;;;;;;;7.07;4.22;;;;;;;18.20;54.69;98763.59;4136551;28;20124;-70
2022/07/20 01:13:22;;;;;;;6.45;4.20;;;;;;;18.17;54.28;98763.63;4137421;28;20046;-69
2022/07/20 01:15:23;;;;;;;9.90;4.45;;;;;;;18.12;53.81;98752.91;4137616;28;20087;-70
2022/07/20 01:17:23;;;;;;;4.88;4.28;;;;;;;18.07;53.91;98756.19;4137193;28;20030;-69
2022/07/20 01:19:23;;;;;;;6.25;4.40;;;;;;;18.06;53.85;98757.41;4135080;28;20042;-70
2022/07/20 01:21:24;;;;;;;7.45;4.53;;;;;;;18.05;53.92;98753.03;4137917;28;20235;-70
2022/07/20 01:23:24;;;;;;;10.82;4.82;;;;;;;18.05;53.53;98753.03;4135156;28;20046;-69
2022/07/20 01:25:25;;;;;;;4.95;4.45;;;;;;;18.03;53.89;98756.22;4137572;28;20496;-70
2022/07/20 01:27:25;;;;;;;5.20;4.25;;;;;;;17.97;53.70;98755.13;4137749;28;20104;-70
2022/07/20 01:29:25;;;;;;;6.80;4.63;;;;;;;17.92;54.40;98748.00;4136799;28;20045;-70
2022/07/20 01:31:26;;;;;;;6.15;4.18;;;;;;;17.88;54.52;98757.66;4137929;28;20128;-69
2022/07/20 01:33:26;;;;;;;5.30;4.75;;;;;;;17.80;54.85;98758.97;4137782;28;20069;-70
2022/07/20 01:35:26;;;;;;;5.88;4.90;;;;;;;17.79;53.96;98758.19;4137233;28;20052;-69
2022/07/20 01:37:28;;;;;;;7.88;4.30;;;;;;;17.71;54.57;98748.28;4135544;28;20042;-70
2022/07/20 01:39:28;;;;;;;8.82;5.28;;;;;;;17.73;54.94;98756.25;4137336;28;20045;-69
2022/07/20 01:41:29;;;;;;;9.35;4.68;;;;;;;17.71;54.66;98759.47;4137090;28;20038;-70
2022/07/20 01:43:29;;;;;;;7.20;4.60;;;;;;;17.68;54.79;98760.28;4136844;28;20153;-70
2022/07/20 01:45:30;;;;;;;8.80;4.88;;;;;;;17.63;54.91;98755.94;4137357;28;20533;-69
2022/07/20 01:47:30;;;;;;;7.47;4.10;;;;;;;17.62;54.59;98756.34;4137133;28;20046;-69
2022/07/20 01:49:30;;;;;;;5.10;4.18;;;;;;;17.54;54.96;98754.84;4136850;28;20073;-69
2022/07/20 01:51:31;;;;;;;7.20;4.63;;;;;;;17.48;54.91;98750.94;4135626;28;20060;-69
2022/07/20 01:53:31;;;;;;;5.40;4.22;;;;;;;17.42;55.44;98751.38;4137723;28;20503;-69
2022/07/20 01:55:32;;;;;;;7.10;4.72;;;;;;;17.36;55.46;98750.25;4137543;28;20030;-69
2022/07/20 01:57:32;;;;;;;5.20;4.55;;;;;;;17.32;55.86;98749.50;4136457;28;20113;-69
2022/07/20 01:59:33;;;;;;;7.43;4.47;;;;;;;17.29;55.55;98746.75;4137534;28;20442;-69
2022/07/20 02:01:33;;;;;;;5.63;4.07;;;;;;;17.30;55.29;98743.56;4134844;28;20053;-69
2022/07/20 02:03:35;;;;;;;5.47;4.30;;;;;;;17.27;55.51;98747.16;4137138;28;20540;-69
2022/07/20 02:05:35;;;;;;;7.78;5.20;;;;;;;17.22;56.14;98739.25;4136998;28;20038;-69
2022/07/20 02:07:37;;;;;;;7.53;4.55;;;;;;;17.25;55.43;98746.78;4136636;28;20060;-69
2022/07/20 02:09:37;;;;;;;5.53;4.57;;;;;;;17.23;56.03;98737.25;4136156;28;20395;-69
2022/07/20 02:11:38;;;;;;;5.68;4.20;;;;;;;17.25;55.23;98746.78;4137874;28;20371;-69
2022/07/20 02:13:38;;;;;;;6.88;4.45;;;;;;;17.21;56.13;98743.25;4138046;28;20049;-69
2022/07/20 02:17:58;;;;;;;7.85;4.85;;;;;;;17.18;56.34;98738.47;4136518;28;20359;-69
2022/07/20 02:20:03;;;;;;;8.85;5.18;;;;;;;17.18;56.45;98744.06;4135299;28;20445;-69
2022/07/20 02:22:03;;;;;;;6.53;4.95;;;;;;;17.15;56.35;98742.13;4134422;28;20349;-70
2022/07/20 02:24:04;;;;;;;8.05;4.70;;;;;;;17.11;56.74;98744.13;4137624;28;20036;-69
2022/07/20 02:26:04;;;;;;;5.53;4.40;;;;;;;17.06;56.88;98739.81;4135754;28;20030;-70
2022/07/20 02:28:06;;;;;;;7.03;4.40;;;;;;;17.00;57.10;98744.25;4137375;28;20034;-69
2022/07/20 02:30:07;;;;;;;5.43;4.60;;;;;;;16.96;57.40;98739.91;4136010;28;20182;-70
2022/07/20 02:32:07;;;;;;;6.47;4.28;;;;;;;16.88;57.78;98744.78;4136132;28;20485;-69
2022/07/20 02:34:08;;;;;;;5.47;4.25;;;;;;;16.84;58.31;98741.22;4136815;28;20398;-70
2022/07/20 02:36:08;;;;;;;5.63;4.60;;;;;;;16.79;58.30;98752.84;4135031;28;20037;-70
2022/07/20 02:38:08;;;;;;;6.60;5.05;;;;;;;16.75;58.22;98747.28;4136468;28;20041;-69
2022/07/20 02:40:09;;;;;;;12.00;4.95;;;;;;;16.72;58.43;98741.75;4135249;28;20394;-69
2022/07/20 02:42:10;;;;;;;6.75;4.55;;;;;;;16.65;59.20;98738.97;4136706;28;20385;-69
2022/07/20 02:44:10;;;;;;;9.85;4.65;;;;;;;16.59;59.39;98744.22;4135489;28;20049;-69
2022/07/20 02:46:10;;;;;;;6.60;4.38;;;;;;;16.54;59.84;98742.63;4136327;28;20046;-69
2022/07/20 02:48:11;;;;;;;6.47;5.03;;;;;;;16.55;59.30;98746.25;4136190;28;20038;-69
2022/07/20 02:50:13;;;;;;;8.65;4.93;;;;;;;16.48;59.84;98741.50;4136304;28;20157;-69
2022/07/20 02:52:14;;;;;;;5.30;4.57;;;;;;;16.47;60.44;98742.72;4135427;28;20377;-69
2022/07/20 02:54:14;;;;;;;11.45;5.18;;;;;;;16.45;60.46;98745.09;4136468;28;20307;-69
2022/07/20 02:56:14;;;;;;;8.82;5.00;;;;;;;16.42;60.94;98745.16;4134080;28;20042;-69
2022/07/20 02:58:15;;;;;;;5.57;4.70;;;;;;;16.40;60.13;98734.41;4137262;28;20391;-69
2022/07/20 03:00:15;;;;;;;7.18;5.15;;;;;;;16.44;59.42;98742.72;4136281;28;20117;-69
2022/07/20 03:02:16;;;;;;;7.05;4.95;;;;;;;16.35;60.71;98745.19;4136027;28;20077;-69
2022/07/20 03:04:16;;;;;;;7.07;4.68;;;;;;;16.41;59.84;98740.78;4136037;28;20041;-69
2022/07/20 03:06:17;;;;;;;6.13;5.22;;;;;;;16.40;60.57;98741.97;4135341;28;20470;-69
2022/07/20 03:08:17;;;;;;;11.45;4.85;;;;;;;16.36;60.16;98742.00;4133563;28;20209;-69
2022/07/20 03:10:18;;;;;;;9.32;5.30;;;;;;;16.27;60.71;98739.66;4135956;28;20514;-69
2022/07/20 03:12:18;;;;;;;9.70;6.20;;;;;;;16.26;60.18;98751.25;4136517;28;20029;-69
2022/07/20 03:14:19;;;;;;;14.48;4.82;;;;;;;16.21;60.78;98749.66;4136085;28;20540;-69
2022/07/20 03:16:19;;;;;;;7.05;4.97;;;;;;;16.20;61.17;98752.88;4134583;28;20359;-69
2022/07/20 03:18:19;;;;;;;12.52;5.30;;;;;;;16.17;61.12;98751.69;4135424;28;20022;-69
2022/07/20 03:20:20;;;;;;;8.40;4.53;;;;;;;16.16;61.10;98747.31;4135410;28;20453;-69
2022/07/20 03:22:20;;;;;;;11.63;5.03;;;;;;;16.14;60.96;98751.75;4135939;28;20363;-69
2022/07/20 03:24:20;;;;;;;7.50;4.70;;;;;;;16.13;61.04;98745.34;4136035;28;20053;-69
2022/07/20 03:26:22;;;;;;;8.73;5.00;;;;;;;16.14;61.29;98760.13;4136312;28;20193;-69
2022/07/20 03:28:22;;;;;;;7.32;4.95;;;;;;;16.12;60.80;98754.13;4135608;28;20521;-69
2022/07/20 03:30:24;;;;;;;10.38;4.80;;;;;;;16.12;60.90;98768.88;4134157;28;20034;-69
2022/07/20 03:32:24;;;;;;;9.68;4.60;;;;;;;16.10;61.64;98768.50;4135843;28;20046;-69
2022/07/20 03:34:24;;;;;;;6.72;4.55;;;;;;;16.08;61.82;98761.75;4134444;28;20386;-69
2022/07/20 03:36:25;;;;;;;13.50;4.88;;;;;;;16.08;61.79;98764.53;4136873;28;20516;-69
2022/07/20 03:38:25;;;;;;;8.77;5.80;;;;;;;16.04;62.03;98761.75;4135178;28;20050;-69
2022/07/20 03:40:25;;;;;;;8.27;5.15;;;;;;;16.03;61.69;98774.09;4135533;28;20052;-69
2022/07/20 03:42:26;;;;;;;6.95;4.85;;;;;;;16.01;61.61;98776.53;4134956;28;20045;-69
2022/07/20 03:44:26;;;;;;;9.85;4.88;;;;;;;16.03;61.11;98774.09;4136477;28;20559;-69
2022/07/20 03:46:26;;;;;;;5.57;4.70;;;;;;;16.04;61.88;98774.91;4134893;28;20655;-69
2022/07/20 03:48:26;;;;;;;8.23;5.03;;;;;;;16.03;61.57;98790.84;4135984;28;20145;-69
2022/07/20 03:50:27;;;;;;;9.52;4.90;;;;;;;15.97;61.92;98776.56;4139717;28;20704;-69
2022/07/20 03:52:27;;;;;;;6.97;4.90;;;;;;;15.94;61.97;98793.28;4138856;28;20092;-69
2022/07/20 03:54:28;;;;;;;7.53;4.82;;;;;;;15.88;62.04;98784.56;4138603;28;20446;-69
2022/07/20 03:56:28;;;;;;;7.72;5.13;;;;;;;15.86;61.74;98781.38;4138877;28;20137;-69
2022/07/20 03:58:28;;;;;;;7.65;4.57;;;;;;;15.86;61.91;98786.97;4137164;28;20410;-69
2022/07/20 04:00:29;;;;;;;6.15;4.68;;;;;;;15.87;61.69;98788.53;4138322;28;20471;-69
2022/07/20 04:02:30;;;;;;;14.95;5.28;;;;;;;15.85;62.08;98796.53;4137477;28;20224;-69
2022/07/20 04:04:31;;;;;;;7.85;4.70;;;;;;;15.90;61.33;98790.53;4137871;28;20045;-69
2022/07/20 04:06:31;;;;;;;7.40;4.40;;;;;;;15.90;61.43;98798.91;4135726;28;20100;-69
2022/07/20 04:08:32;;;;;;;9.32;4.55;;;;;;;15.91;61.61;98797.72;4135976;28;20042;-69
2022/07/20 04:10:32;;;;;;;7.97;4.75;;;;;;;15.94;61.42;98791.31;4136597;28;20053;-69
2022/07/20 04:12:33;;;;;;;6.50;4.53;;;;;;;15.95;60.90;98783.72;4136367;28;20038;-69
2022/07/20 04:14:34;;;;;;;12.13;4.60;;;;;;;15.99;61.11;98787.31;4137046;28;20057;-69
2022/07/20 04:16:35;;;;;;;10.77;4.72;;;;;;;16.03;60.97;98790.84;4135486;28;20475;-69
2022/07/20 04:18:35;;;;;;;7.97;4.78;;;;;;;16.04;61.33;98786.06;4135661;28;20093;-69
2022/07/20 04:20:37;;;;;;;14.88;5.80;;;;;;;16.09;61.92;98799.59;4137144;28;20053;-69
2022/07/20 04:22:38;;;;;;;8.50;5.25;;;;;;;16.09;61.96;98786.44;4137276;28;20034;-69
2022/07/20 04:24:38;;;;;;;5.90;5.15;;;;;;;16.19;61.65;98805.13;4136621;28;20123;-69
2022/07/20 04:26:38;;;;;;;6.13;4.53;;;;;;;16.22;61.66;98797.94;4136017;28;20049;-69
2022/07/20 04:28:39;;;;;;;7.15;4.85;;;;;;;16.33;60.71;98797.88;4133681;28;20200;-69
2022/07/20 04:30:40;;;;;;;7.28;4.82;;;;;;;16.39;61.11;98797.03;4135683;28;20530;-69
2022/07/20 04:32:40;;;;;;;7.65;4.65;;;;;;;16.46;61.43;98802.53;4137018;28;20092;-69
2022/07/20 04:34:41;;;;;;;8.27;4.95;;;;;;;16.50;61.49;98803.34;4131773;28;20061;-69
2022/07/20 04:36:41;;;;;;;5.15;4.43;;;;;;;16.53;61.14;98802.50;4087166;28;20042;-69
2022/07/20 04:38:41;;;;;;;7.07;4.93;;;;;;;16.56;61.01;98800.91;4136244;28;20401;-69
2022/07/20 04:40:42;;;;;;;7.18;5.10;;;;;;;16.62;60.28;98790.88;4138523;28;20468;-69
2022/07/20 04:42:42;;;;;;;14.02;5.22;;;;;;;16.68;60.45;98802.41;4138860;28;20054;-69
2022/07/20 04:44:43;;;;;;;7.15;4.75;;;;;;;16.74;60.43;98795.22;4136319;28;20077;-69
2022/07/20 04:46:43;;;;;;;7.85;4.97;;;;;;;16.85;59.96;98795.91;4136461;28;20092;-69
2022/07/20 04:48:43;;;;;;;7.45;4.65;;;;;;;16.93;60.32;98796.63;4137465;28;20041;-69
2022/07/20 04:50:44;;;;;;;6.90;4.80;;;;;;;17.01;59.75;98798.94;4137736;28;20050;-69
2022/07/20 04:52:44;;;;;;;13.10;5.28;;;;;;;17.09;59.91;98808.84;4138861;28;20037;-69
2022/07/20 04:54:44;;;;;;;6.57;4.57;;;;;;;17.21;59.93;98806.75;4138319;28;20056;-69
2022/07/20 04:56:45;;;;;;;17.67;5.40;;;;;;;17.29;60.08;98809.06;4137111;28;20081;-69
2022/07/20 04:58:50;;;;;;;15.77;5.55;;;;;;;17.41;59.41;98807.75;4136173;28;20055;-69
2022/07/20 05:00:50;;;;;;;12.52;5.65;;;;;;;17.53;58.85;98806.41;4138196;28;20045;-69
2022/07/20 05:02:50;;;;;;;10.50;5.10;;;;;;;17.63;58.84;98805.50;4135660;28;20053;-69
2022/07/20 05:04:51;;;;;;;12.98;5.38;;;;;;;17.76;58.45;98802.97;4136879;28;20716;-69
2022/07/20 05:06:51;;;;;;;18.02;5.50;;;;;;;17.88;57.92;98806.03;4136226;28;20046;-69
2022/07/20 05:08:52;;;;;;;16.65;5.28;;;;;;;18.02;57.88;98801.44;4136416;28;20049;-69
2022/07/20 05:10:52;;;;;;;16.63;5.75;;;;;;;18.14;56.96;98800.91;4137014;28;20069;-70
2022/07/20 05:12:52;;;;;;;17.30;5.55;;;;;;;18.28;56.57;98797.88;4138834;28;20082;-69
2022/07/20 05:14:53;;;;;;;11.90;4.72;;;;;;;18.39;56.70;98795.72;4137238;28;20057;-70
2022/07/20 05:16:53;;;;;;;8.85;4.70;;;;;;;18.50;56.83;98790.75;4137790;28;20305;-70
2022/07/20 05:18:54;;;;;;;6.40;4.32;;;;;;;18.62;56.88;98792.19;4137089;28;20547;-68
2022/07/20 05:20:54;;;;;;;11.25;5.05;;;;;;;18.78;56.51;98797.13;4138635;28;20046;-69
2022/07/20 05:22:54;;;;;;;10.13;5.20;;;;;;;18.95;56.27;98784.03;4136777;28;20217;-69
2022/07/20 05:24:55;;;;;;;8.27;4.82;;;;;;;19.13;55.91;98795.75;4134408;28;20088;-69
2022/07/20 05:26:55;;;;;;;7.30;4.35;;;;;;;19.25;55.25;98792.31;4138609;28;20123;-69
2022/07/20 05:28:56;;;;;;;11.13;4.72;;;;;;;19.39;54.74;98793.28;4132492;28;20046;-69
2022/07/20 05:30:56;;;;;;;8.13;4.70;;;;;;;19.50;54.10;98794.66;4133394;28;20080;-69
2022/07/20 05:32:56;;;;;;;7.18;4.70;;;;;;;19.62;54.11;98791.25;4138539;28;20441;-69
2022/07/20 05:34:57;;;;;;;8.60;4.80;;;;;;;19.79;53.24;98800.53;4135869;28;20797;-69
2022/07/20 05:36:57;;;;;;;8.95;5.10;;;;;;;19.93;52.09;98782.56;4137690;28;20050;-69
2022/07/20 05:38:57;;;;;;;9.32;5.47;;;;;;;20.03;51.76;98797.63;4135928;28;20436;-69
2022/07/20 05:40:58;;;;;;;7.65;4.53;;;;;;;20.17;51.67;98795.28;4137479;28;20484;-69
2022/07/20 05:42:59;;;;;;;7.22;4.80;;;;;;;20.34;52.17;98795.31;4137940;28;20049;-70
2022/07/20 05:44:59;;;;;;;8.15;5.07;;;;;;;20.44;51.11;98783.88;4136319;28;20097;-69
2022/07/20 05:46:59;;;;;;;8.45;4.75;;;;;;;20.58;50.58;98788.38;4137216;28;20042;-69
2022/07/20 05:49:00;;;;;;;5.88;4.72;;;;;;;20.66;49.36;98792.59;4135793;28;20378;-70
2022/07/20 05:51:00;;;;;;;6.35;4.97;;;;;;;20.77;49.75;98797.97;4137129;28;20042;-69
2022/07/20 05:53:01;;;;;;;6.95;4.75;;;;;;;20.81;49.01;98787.41;4137327;28;20556;-69
2022/07/20 05:55:01;;;;;;;8.85;5.22;;;;;;;20.92;50.13;98801.19;4137673;28;20241;-70
2022/07/20 05:57:01;;;;;;;8.85;4.50;;;;;;;21.02;49.49;98791.72;4137103;28;20045;-70
2022/07/20 05:59:02;;;;;;;7.03;4.80;;;;;;;21.10;49.39;98790.31;4136965;28;20498;-70
2022/07/20 06:01:02;;;;;;;5.30;4.47;;;;;;;21.21;48.67;98788.00;4137848;28;20073;-70
2022/07/20 06:03:04;;;;;;;11.88;5.18;;;;;;;21.29;48.86;98786.59;4137370;28;20050;-69
2022/07/20 06:05:04;;;;;;;7.00;4.50;;;;;;;21.34;46.98;98788.06;4136170;28;20046;-69
2022/07/20 06:07:10;;;;;;;10.70;5.03;;;;;;;21.39;47.98;98793.16;4137424;28;20048;-69
2022/07/20 06:09:11;;;;;;;6.22;4.60;;;;;;;21.43;48.10;98788.25;4136084;28;20145;-70
2022/07/20 06:11:11;;;;;;;8.02;5.10;;;;;;;21.47;47.78;98803.00;4136907;28;20580;-69
2022/07/20 06:13:11;;;;;;;8.10;4.35;;;;;;;21.56;46.72;98796.72;4136621;28;20088;-70
2022/07/20 06:15:12;;;;;;;8.20;5.38;;;;;;;21.66;47.96;98797.66;4137483;28;20049;-70
2022/07/20 06:17:12;;;;;;;9.25;5.32;;;;;;;21.74;47.68;98801.84;4137594;28;20127;-70
2022/07/20 06:19:13;;;;;;;7.88;4.75;;;;;;;21.81;47.21;98794.00;4137202;28;20045;-70
2022/07/20 06:21:14;;;;;;;13.95;5.30;;;;;;;21.97;47.01;98803.63;4137471;28;20210;-70
2022/07/20 06:23:15;;;;;;;14.25;4.95;;;;;;;22.06;47.86;98798.91;4137288;28;20046;-69
2022/07/20 06:25:17;;;;;;;8.88;5.03;;;;;;;22.17;46.57;98795.78;4137486;28;20368;-69
2022/07/20 06:27:17;;;;;;;;;;;;;;;22.35;46.94;98789.63;4135419;28;20264;-70
2022/07/20 06:29:18;;;;;;;10.73;5.50;;;;;;;22.46;45.69;98801.34;4137334;28;20436;-70
2022/07/20 06:31:18;;;;;;;11.05;5.40;;;;;;;22.66;46.17;98795.47;4135932;28;20781;-70
2022/07/20 06:33:19;;;;;;;8.52;4.80;;;;;;;22.78;45.80;98791.06;4132106;28;20046;-70
2022/07/20 06:35:21;;;;;;;10.90;5.38;;;;;;;22.87;45.09;98785.56;4134474;28;20045;-70
2022/07/20 06:37:22;;;;;;;8.07;4.97;;;;;;;22.93;45.40;98787.34;4134737;28;20364;-70
2022/07/20 06:39:22;;;;;;;11.57;5.38;;;;;;;23.03;45.37;98799.53;4135743;28;20112;-70
2022/07/20 06:41:23;;;;;;;20.25;5.20;;;;;;;23.11;45.39;98792.41;4135748;28;20050;-70
2022/07/20 06:43:23;;;;;;;8.48;4.85;;;;;;;23.16;45.40;98793.84;4136495;28;20375;-70
2022/07/20 06:45:24;;;;;;;10.18;4.72;;;;;;;23.28;44.66;98787.38;4136001;28;20077;-70
2022/07/20 06:47:24;;;;;;;11.75;5.30;;;;;;;23.39;44.96;98789.81;4137026;28;20103;-70
2022/07/20 06:49:26;;;;;;;12.52;5.25;;;;;;;23.47;44.34;98788.31;4135893;28;20049;-70
2022/07/20 06:51:26;;;;;;;10.77;5.10;;;;;;;23.61;44.89;98782.19;4137554;28;20188;-70
2022/07/20 06:53:26;;;;;;;9.75;5.07;;;;;;;23.82;44.28;98777.78;4136421;28;20494;-70
2022/07/20 06:55:27;;;;;;;11.57;5.28;;;;;;;24.11;44.58;98774.66;4136680;28;20041;-70
2022/07/20 06:57:27;;;;;;;15.10;5.63;;;;;;;24.35;44.10;98774.97;4136435;28;20060;-70
2022/07/20 06:59:27;;;;;;;11.18;5.13;;;;;;;24.52;43.46;98776.31;4134814;28;20049;-70
2022/07/20 07:01:28;;;;;;;10.60;5.15;;;;;;;24.71;43.53;98770.72;4136466;28;20661;-70
2022/07/20 07:03:28;;;;;;;8.38;4.70;;;;;;;24.87;42.44;98776.09;4137208;28;20038;-70
2022/07/20 07:05:28;;;;;;;5.45;4.78;;;;;;;25.05;41.67;98770.50;4137021;28;20080;-70
2022/07/20 07:07:29;;;;;;;8.45;4.43;;;;;;;25.27;41.56;98767.53;4136017;28;20041;-70
2022/07/20 07:09:29;;;;;;;6.28;4.43;;;;;;;25.62;40.86;98768.00;4136226;28;20042;-70
2022/07/20 07:11:30;;;;;;;11.02;4.72;;;;;;;25.85;40.42;98765.81;4136962;28;20144;-70
2022/07/20 07:13:30;;;;;;;5.47;4.15;;;;;;;25.97;40.44;98767.66;4135697;28;20640;-70
2022/07/20 07:15:31;;;;;;;7.90;4.00;;;;;;;26.20;39.63;98772.66;4136286;28;20116;-70
2022/07/20 07:17:31;;;;;;;4.95;3.83;;;;;;;26.46;38.69;98780.78;4136499;28;20356;-70
2022/07/20 07:19:32;;;;;;;4.82;3.72;;;;;;;26.66;38.42;98771.72;4135216;28;20053;-70
2022/07/20 07:21:32;;;;;;;8.15;4.20;;;;;;;26.83;37.61;98773.69;4137003;28;20129;-70
2022/07/20 07:23:33;;;;;;;7.07;3.97;;;;;;;27.09;37.10;98774.03;4136192;28;20065;-70
2022/07/20 07:25:33;;;;;;;5.95;3.72;;;;;;;27.33;36.87;98776.06;4135900;28;20442;-70
2022/07/20 07:27:33;;;;;;;6.22;4.05;;;;;;;27.51;35.51;98769.44;4136219;28;20042;-70
2022/07/20 07:29:35;;;;;;;6.28;3.90;;;;;;;27.68;35.56;98777.06;4134699;28;20153;-70
2022/07/20 07:31:35;;;;;;;5.55;3.70;;;;;;;27.85;35.83;98773.75;4135455;28;20333;-70
2022/07/20 07:33:36;;;;;;;4.50;4.05;;;;;;;27.96;35.55;98768.25;4136106;28;20132;-70
2022/07/20 07:35:36;;;;;;;6.07;4.15;;;;;;;28.09;34.74;98765.91;4136189;28;20141;-71
2022/07/20 07:37:38;;;;;;;10.07;4.55;;;;;;;28.25;34.62;98764.63;4135653;28;20057;-71
2022/07/20 07:39:39;;;;;;;7.38;3.95;;;;;;;28.29;33.91;98756.69;4134909;28;20042;-71
2022/07/20 07:41:39;;;;;;;7.03;3.95;;;;;;;28.29;33.78;98756.69;4136727;28;20065;-71
2022/07/20 07:43:42;;;;;;;7.25;4.00;;;;;;;28.39;33.07;98752.50;4135823;28;20502;-70
2022/07/20 07:45:43;;;;;;;5.07;4.10;;;;;;;28.57;32.58;98750.69;4136024;28;20363;-70
2022/07/20 07:47:46;;;;;;;9.13;4.35;;;;;;;28.77;33.02;98742.94;4135880;28;20073;-71
2022/07/20 07:49:46;;;;;;;6.72;3.88;;;;;;;28.87;32.43;98746.44;4136328;28;20470;-71
2022/07/20 07:51:47;;;;;;;8.13;3.88;;;;;;;28.92;32.44;98742.94;4136162;28;20100;-71
2022/07/20 07:53:47;;;;;;;7.65;3.95;;;;;;;29.06;31.66;98747.00;4134664;28;20336;-71
2022/07/20 07:55:48;;;;;;;9.20;4.10;;;;;;;29.28;31.75;98740.78;4136753;28;20482;-71
2022/07/20 07:57:48;;;;;;;8.38;3.85;;;;;;;29.51;31.06;98747.56;4134793;28;20037;-71
2022/07/20 07:59:48;;;;;;;6.00;4.22;;;;;;;29.63;30.86;98741.50;4135276;28;20466;-71
2022/07/20 08:01:49;;;;;;;7.15;4.05;;;;;;;29.84;31.02;98735.75;4134674;28;20042;-71
2022/07/20 08:03:49;;;;;;;7.18;3.60;;;;;;;29.93;30.37;98732.72;4136556;28;20046;-71
2022/07/20 08:05:49;;;;;;;8.10;3.83;;;;;;;29.93;30.26;98730.66;4134788;28;20325;-71
2022/07/20 08:07:50;;;;;;;7.45;3.88;;;;;;;29.97;29.87;98729.66;4135203;28;20133;-71
2022/07/20 08:09:50;;;;;;;7.57;4.03;;;;;;;30.00;29.44;98728.63;4135716;28;20130;-71
2022/07/20 08:11:50;;;;;;;6.88;3.55;;;;;;;29.97;29.58;98723.94;4135668;28;20058;-71
2022/07/20 08:13:53;;;;;;;6.63;4.13;;;;;;;30.00;29.49;98728.63;4135998;28;20050;-71
2022/07/20 08:15:54;;;;;;;8.98;3.80;;;;;;;30.00;30.28;98732.25;4136216;28;20553;-71
2022/07/20 08:17:54;;;;;;;5.95;3.30;;;;;;;29.97;30.30;98721.09;4134199;28;20046;-71
2022/07/20 08:19:54;;;;;;;7.45;3.72;;;;;;;30.05;28.94;98719.34;4135557;28;20045;-71
2022/07/20 08:21:55;;;;;;;4.32;3.50;;;;;;;30.15;29.58;98726.47;4135420;28;20038;-71
2022/07/20 08:23:55;;;;;;;6.53;3.42;;;;;;;30.31;29.34;98716.47;4136195;28;20049;-71
2022/07/20 08:25:55;;;;;;;5.00;3.35;;;;;;;30.49;28.66;98725.44;4136113;28;21059;-71
2022/07/20 08:28:11;;;;;;;4.80;3.65;;;;;;;30.66;29.15;98716.22;4135411;28;20046;-71
2022/07/20 08:30:12;;;;;;;3.63;3.33;;;;;;;30.92;28.13;98716.88;4135509;28;20173;-71
2022/07/20 08:32:12;;;;;;;7.80;3.85;;;;;;;30.98;26.63;98720.56;4135342;28;20116;-71
2022/07/20 08:34:12;;;;;;;9.75;4.20;;;;;;;31.04;27.30;98718.50;4136156;28;20398;-71
2022/07/20 08:36:13;;;;;;;5.65;3.30;;;;;;;30.90;28.69;98715.84;4139147;28;20355;-71
2022/07/20 08:38:13;;;;;;;4.00;3.53;;;;;;;30.97;27.77;98713.28;4138364;28;20022;-71
2022/07/20 08:40:14;;;;;;;9.05;3.85;;;;;;;31.11;28.00;98711.50;4138403;28;20022;-71
2022/07/20 08:42:14;;;;;;;6.55;3.30;;;;;;;31.07;28.37;98708.13;4137514;28;20037;-71
2022/07/20 08:44:15;;;;;;;5.07;3.60;;;;;;;30.85;27.86;98713.72;4137457;28;20698;-71
2022/07/20 08:46:17;;;;;;;12.48;3.50;;;;;;;31.01;27.37;98715.88;4137682;28;20038;-71
2022/07/20 08:48:18;;;;;;;7.63;3.83;;;;;;;30.96;27.81;98720.28;4138592;28;20183;-71
2022/07/20 08:50:24;;;;;;;4.20;3.80;;;;;;;30.99;27.20;98710.69;4137792;28;20714;-71
2022/07/20 08:52:24;;;;;;;7.28;3.70;;;;;;;31.07;26.72;98708.13;4138334;28;20037;-71
2022/07/20 08:54:26;;;;;;;6.60;3.83;;;;;;;31.22;26.37;98705.88;4138978;28;20049;-71
2022/07/20 08:56:27;;;;;;;3.88;3.17;;;;;;;31.31;26.90;98707.72;4136766;28;20069;-71
2022/07/20 08:58:27;;;;;;;5.18;3.42;;;;;;;31.41;26.47;98705.41;4138039;28;20034;-71
2022/07/20 09:00:28;;;;;;;6.07;3.13;;;;;;;31.42;26.34;98702.03;4139037;28;20502;-71
2022/07/20 09:02:28;;;;;;;4.78;3.28;;;;;;;31.51;26.33;98698.16;4138447;28;20053;-71
2022/07/20 09:04:29;;;;;;;5.38;3.35;;;;;;;31.57;26.84;98693.25;4138176;28;20072;-71
2022/07/20 09:06:30;;;;;;;5.50;3.50;;;;;;;31.66;26.83;98700.78;4136647;28;20432;-71
2022/07/20 09:08:30;;;;;;;6.47;3.40;;;;;;;31.85;26.43;98702.66;4137859;28;20049;-71
2022/07/20 09:10:34;;;;;;;6.45;3.33;;;;;;;32.03;24.45;98707.13;4137930;28;20442;-71
2022/07/20 09:13:03;;;;;;;6.22;3.58;;;;;;;32.05;24.13;98695.94;4138057;28;20045;-71
2022/07/20 09:15:04;;;;;;;10.15;3.90;;;;;;;31.98;24.61;98687.06;4137132;28;20749;-71
2022/07/20 09:17:16;;;;;;;7.47;3.50;;;;;;;32.07;25.39;98704.75;4138457;28;20609;-71
2022/07/20 09:19:17;;;;;;;7.70;4.07;;;;;;;32.23;24.88;98693.84;4136734;28;20547;-71
2022/07/20 09:21:28;;;;;;;5.95;3.35;;;;;;;32.39;24.58;98693.06;4137365;28;20073;-71
2022/07/20 09:23:44;;;;;;;6.90;3.38;;;;;;;32.54;23.87;98692.78;4138269;28;20049;-71
2022/07/20 09:25:55;;;;;;;5.93;3.40;;;;;;;32.63;24.60;98703.97;4138005;28;20049;-71
2022/07/20 09:27:56;;;;;;;4.93;3.40;;;;;;;32.50;23.18;98695.13;4137934;28;20775;-71
2022/07/20 09:30:12;;;;;;;7.10;3.75;;;;;;;32.43;23.34;98696.44;4137991;28;20065;-71
2022/07/20 09:32:12;;;;;;;4.10;3.00;;;;;;;32.41;23.56;98691.22;4137799;28;20088;-71
2022/07/20 09:34:21;;;;;;;4.20;3.70;;;;;;;32.40;24.54;98689.69;4137904;28;20429;-71